Aeroporto :
LOGIN :

Iscrizione | Disclaimer

   EN    FR    IT 

 










Sommario :    VFR   VFR Marginale   IFR   IFR Intensivo   IFR Molto Intensivo
Visibilità : 
Base nubi : 
>= 8 km
>= 3000ft
5 / 8 km
1000 / 3000 ft
1500m / 5 km
500 / 1000 ft
800 / 1500m
200 / 500 ft
< 800m
< 200 ft
Simboli :   Temporali  Nebbia  Neve Forte  Precipitazioni Forti  Vento > 20 kt
SIGMETs :   Varie  Temporali  Ghiacco  Turbolenza  Onda orograficha  Ceneri Vulcaniche







- Altitudine del aeroporto : 102 ft
- Codice IATA : EXT
- Carte del aeroporto


EGTE - Exeter

ULTIMO METAR :
  • 240820Z 20012KT 160V230 6000 -RA FEW004 BKN015 11/10 Q0990

METARs OBSOLETI :
  • 240750Z 14007KT 2100 -RA BR FEW004 BKN013 12/11 Q0990
  • 240720Z 14007KT 110V170 2100 BR FEW004 BKN014 12/11 Q0990
  • 240650Z 14004KT 5000 BR BKN010 12/11 Q0990
  • 240620Z 11005KT 6000 SCT014 12/10 Q0990
  • 240550Z 11006KT 7000 FEW015 12/10 Q0990

TAF AMD TAF EGTE
Valido dal 24 a 07 ore il 24 a 15 ore UTC


240737Z 2407/2415 VRB02KT 2000 BR FEW014
TEMPO 2407/2411 7000 RA BKN014
PROB30
TEMPO 2407/2410 BKN004
BECMG 2410/2412 20010KT 9999 NSW
PROB30
TEMPO 2411/2415 6000 RA BKN012
Nessun NOTAM noto per questo aeroporto.



MetMap, La meteo Aeronautica in un colpo d'occhio ! - Copyright ORBIFLY Dicembre 2007 - Disclaimer

ORBIFLY MET'MAP TEAM :

Programmazione e sviluppo : Alexandra Zaïnal
Concezione e sviluppo : Baudouin d'Aumeries
Co-Programmazione e sviluppo : Marc-Olivier Méhu
Supporto tecnico e logistico : Manuel Goepfert
Aiuto per la traduzione : Arnaldo La Scala

Contatto : metmap@orbifly.com




FONTI E CREDITI :

   NOAA